Time;durP1;ratioP1;P1;durP2;ratioP2;P2;SDS_P1;SDS_P2;PMS_P1;PMS_P2;Temp;Humidity;BMP_temperature;BMP_pressure;BME280_temperature;BME280_humidity;BME280_pressure;Samples;Min_cycle;Max_cycle;Signal;HPM_P1;HPM_P2
2022/01/05 00:00:07;;;;;;;6.83;1.30;;;;;;;2.93;85.89;99081.22;6060785;28;20034;-73
2022/01/05 00:03:04;;;;;;;10.38;1.55;;;;;;;2.91;85.80;99077.06;6061219;28;20303;-74
2022/01/05 00:05:59;;;;;;;3.50;1.30;;;;;;;2.92;85.47;99087.41;6061336;28;20366;-74
2022/01/05 00:08:55;;;;;;;4.60;1.10;;;;;;;2.91;85.60;99095.38;6065621;28;20044;-73
2022/01/05 00:11:50;;;;;;;9.82;1.63;;;;;;;2.87;86.26;99088.78;6063333;28;20052;-74
2022/01/05 00:14:45;;;;;;;9.80;1.50;;;;;;;2.87;85.94;99080.94;6067700;28;20039;-74
2022/01/05 00:17:41;;;;;;;4.73;1.03;;;;;;;2.92;85.42;99078.72;6064099;28;20358;-73
2022/01/05 00:20:36;;;;;;;7.83;1.00;;;;;;;2.99;84.95;99080.63;6063217;28;20068;-73
2022/01/05 00:23:31;;;;;;;5.72;0.88;;;;;;;3.00;85.61;99081.47;6066895;28;20103;-74
2022/01/05 00:26:27;;;;;;;1.97;0.80;;;;;;;2.99;85.23;99077.19;6064670;28;20042;-73
2022/01/05 00:29:23;;;;;;;6.55;1.40;;;;;;;2.98;84.83;99070.31;6064021;28;20057;-74
2022/01/05 00:32:18;;;;;;;3.77;1.33;;;;;;;2.94;85.88;99066.31;6064927;28;20029;-74
2022/01/05 00:35:13;;;;;;;7.55;1.73;;;;;;;2.96;85.52;99072.25;6064233;28;20276;-75
2022/01/05 00:38:09;;;;;;;4.10;1.60;;;;;;;2.99;85.08;99069.34;6079228;28;20041;-74
2022/01/05 00:41:04;;;;;;;4.87;1.30;;;;;;;2.96;85.45;99065.22;6082948;28;20037;-72
2022/01/05 00:44:00;;;;;;;9.02;1.70;;;;;;;2.95;84.97;99058.34;6080829;28;20032;-73
2022/01/05 00:46:55;;;;;;;7.32;1.38;;;;;;;2.94;85.29;99066.31;6080886;28;20051;-74
2022/01/05 00:49:50;;;;;;;6.93;1.37;;;;;;;3.02;85.07;99074.31;6084485;28;20033;-74
2022/01/05 00:52:46;;;;;;;6.43;2.07;;;;;;;2.96;84.53;99088.78;6083346;28;20395;-73
2022/01/05 00:55:41;;;;;;;6.33;1.30;;;;;;;2.97;84.86;99094.84;6083220;28;20032;-73
2022/01/05 00:58:36;;;;;;;4.93;0.90;;;;;;;3.00;85.15;99097.19;6085220;28;20828;-74
2022/01/05 01:01:32;;;;;;;6.40;1.70;;;;;;;2.93;84.71;99102.16;6083644;28;20472;-73
2022/01/05 01:04:27;;;;;;;5.67;1.10;;;;;;;3.00;84.45;99099.81;6080672;28;20293;-74
2022/01/05 01:07:22;;;;;;;6.53;0.90;;;;;;;3.02;84.75;99097.84;6083169;28;20037;-73
2022/01/05 01:10:18;;;;;;;16.47;2.17;;;;;;;3.05;84.19;99102.00;6080396;28;20124;-73
2022/01/05 01:13:17;;;;;;;5.53;1.10;;;;;;;3.03;84.31;99098.69;6077483;28;20090;-74
2022/01/05 01:16:12;;;;;;;5.75;1.30;;;;;;;2.98;83.90;99099.13;6074590;28;20268;-74
2022/01/05 01:19:08;;;;;;;6.72;1.08;;;;;;;3.02;84.13;99110.16;6080048;28;20484;-74
2022/01/05 01:22:03;;;;;;;11.07;1.40;;;;;;;2.99;84.20;99095.50;6084730;28;20040;-74
2022/01/05 01:24:59;;;;;;;15.52;1.77;;;;;;;3.00;84.22;99108.50;6083444;28;20029;-74
2022/01/05 01:27:54;;;;;;;3.40;1.20;;;;;;;2.99;84.23;99106.00;6079505;28;20514;-73
2022/01/05 01:30:50;;;;;;;8.13;1.10;;;;;;;3.02;84.06;99110.16;6080863;28;20053;-74
2022/01/05 01:33:46;;;;;;;5.70;0.90;;;;;;;2.96;84.49;99106.28;6084932;28;20279;-73
2022/01/05 01:36:41;;;;;;;4.18;0.90;;;;;;;2.91;84.65;99111.91;6086208;28;20033;-72
2022/01/05 01:39:37;;;;;;;3.93;0.87;;;;;;;2.91;84.28;99108.47;6080159;28;20028;-74
2022/01/05 01:42:32;;;;;;;4.10;1.40;;;;;;;2.80;84.66;99096.34;6075929;28;20041;-73
2022/01/05 01:45:27;;;;;;;2.85;1.00;;;;;;;2.75;84.61;99095.09;6085627;28;20029;-73
2022/01/05 01:48:23;;;;;;;6.10;1.30;;;;;;;2.66;85.12;99083.69;6084985;28;20047;-74
2022/01/05 01:51:18;;;;;;;8.63;1.20;;;;;;;2.68;84.84;99084.38;6082055;28;20041;-74
2022/01/05 01:54:13;;;;;;;7.72;1.17;;;;;;;2.68;85.14;99086.16;6085467;28;21782;-74
2022/01/05 01:57:09;;;;;;;7.53;1.30;;;;;;;2.66;84.79;99082.84;6084794;28;20029;-74
2022/01/05 02:00:06;;;;;;;6.18;1.20;;;;;;;2.67;85.03;99087.94;6081746;28;20294;-74
2022/01/05 02:03:01;;;;;;;5.13;1.48;;;;;;;2.68;84.71;99091.38;6086072;28;20418;-73
2022/01/05 02:05:57;;;;;;;8.00;2.15;;;;;;;2.68;84.86;99092.22;6080004;28;20030;-73
2022/01/05 02:08:52;;;;;;;4.68;0.98;;;;;;;2.72;84.65;99090.13;6082054;28;20036;-74
2022/01/05 02:11:47;;;;;;;9.37;1.23;;;;;;;2.73;85.05;99092.63;6083618;28;20028;-74
2022/01/05 02:14:43;;;;;;;5.07;1.20;;;;;;;2.69;85.12;99090.44;6081934;28;20021;-74
2022/01/05 02:18:07;;;;;;;5.83;1.17;;;;;;;2.69;85.16;99093.06;6079017;28;20029;-74
2022/01/05 02:21:10;;;;;;;6.20;1.13;;;;;;;2.74;85.21;99090.84;6075290;28;20061;-72
2022/01/05 02:24:07;;;;;;;6.22;1.48;;;;;;;2.70;84.75;99094.69;6083298;28;20083;-73
2022/01/05 02:27:03;;;;;;;4.55;1.25;;;;;;;2.68;85.05;99086.16;6083762;28;20044;-73
2022/01/05 02:29:58;;;;;;;9.25;1.52;;;;;;;2.70;84.70;99087.66;6083929;28;20506;-74
2022/01/05 02:32:54;;;;;;;9.33;1.43;;;;;;;2.67;84.96;99089.72;6085433;28;20040;-74
2022/01/05 02:35:49;;;;;;;6.70;2.20;;;;;;;2.65;85.21;99087.25;6080162;28;20036;-74
2022/01/05 02:38:46;;;;;;;14.77;1.20;;;;;;;2.68;84.89;99092.22;6080238;28;20064;-73
2022/01/05 02:41:42;;;;;;;7.25;1.33;;;;;;;2.68;84.60;99094.84;6082593;28;20029;-73
2022/01/05 02:44:43;;;;;;;7.43;1.37;;;;;;;2.68;84.68;99096.63;6079476;28;20029;-75
2022/01/05 02:47:39;;;;;;;7.78;1.38;;;;;;;2.71;84.47;99093.72;6082430;28;20022;-74
2022/01/05 02:50:35;;;;;;;10.65;1.17;;;;;;;2.65;84.42;99082.03;6074954;28;20041;-72
2022/01/05 02:53:31;;;;;;;7.03;1.23;;;;;;;2.68;84.34;99083.53;6085963;28;20132;-73
2022/01/05 02:56:27;;;;;;;9.05;1.40;;;;;;;2.68;83.88;99075.69;6081525;28;20032;-72
2022/01/05 02:59:23;;;;;;;7.27;1.13;;;;;;;2.67;84.17;99069.63;6082816;28;20037;-72
2022/01/05 03:02:19;;;;;;;7.97;1.15;;;;;;;2.70;83.08;99074.59;6079674;28;20031;-74
2022/01/05 03:05:15;;;;;;;5.18;1.08;;;;;;;2.67;84.06;99084.50;6082998;28;20040;-74
2022/01/05 03:08:10;;;;;;;4.70;1.35;;;;;;;2.66;83.52;99072.38;6082823;28;20049;-72
2022/01/05 03:11:06;;;;;;;10.37;1.40;;;;;;;2.64;83.64;99069.06;6081971;28;20040;-73
2022/01/05 03:14:02;;;;;;;8.00;1.20;;;;;;;2.67;83.50;99081.88;6075669;28;20477;-74
2022/01/05 03:16:57;;;;;;;9.20;1.50;;;;;;;2.67;83.41;99079.25;6084023;28;20021;-73
2022/01/05 03:19:52;;;;;;;5.50;1.27;;;;;;;2.63;83.63;99077.88;6082717;28;20448;-74
2022/01/05 03:22:48;;;;;;;9.50;1.17;;;;;;;2.57;83.80;99089.72;6081190;28;20103;-74
2022/01/05 03:25:43;;;;;;;17.67;1.63;;;;;;;2.54;83.79;99087.38;6084628;28;20028;-74
2022/01/05 03:28:39;;;;;;;9.03;1.27;;;;;;;2.53;83.75;99092.75;6085518;28;20057;-75
2022/01/05 03:31:34;;;;;;;5.05;1.23;;;;;;;2.49;83.44;99096.59;6080189;28;20037;-74
2022/01/05 03:34:31;;;;;;;3.37;1.60;;;;;;;2.47;84.09;99098.53;6080908;28;20030;-74
2022/01/05 03:37:27;;;;;;;9.70;1.35;;;;;;;2.46;83.77;99102.09;6078434;28;20045;-74
2022/01/05 03:40:23;;;;;;;5.10;1.10;;;;;;;2.49;84.09;99102.66;6077835;28;20132;-74
2022/01/05 03:43:19;;;;;;;3.58;1.02;;;;;;;2.52;82.79;99099.78;6082223;28;20025;-72
2022/01/05 03:46:15;;;;;;;7.15;1.45;;;;;;;2.55;83.34;99109.13;6085101;28;20037;-75
2022/01/05 03:49:10;;;;;;;8.50;1.87;;;;;;;2.56;82.91;99119.44;6088096;28;20041;-74
2022/01/05 03:52:06;;;;;;;4.20;1.03;;;;;;;2.58;83.70;99119.34;6082762;28;20279;-72
2022/01/05 03:55:03;;;;;;;6.00;1.65;;;;;;;2.55;83.41;99130.06;6087370;28;20454;-73
2022/01/05 03:57:58;;;;;;;7.18;1.20;;;;;;;2.54;83.53;99125.78;6085131;28;20091;-74
2022/01/05 04:00:54;;;;;;;5.53;1.05;;;;;;;2.50;83.72;99132.25;6085754;28;20065;-75
2022/01/05 04:03:49;;;;;;;4.47;1.10;;;;;;;2.53;82.84;99132.00;6085501;28;20117;-73
2022/01/05 04:06:44;;;;;;;5.73;1.23;;;;;;;2.59;83.00;99134.88;6082996;28;20111;-74
2022/01/05 04:09:40;;;;;;;5.80;1.20;;;;;;;2.56;82.76;99137.75;6086999;28;20481;-73
2022/01/05 04:12:35;;;;;;;4.90;1.10;;;;;;;2.57;82.87;99144.66;6079856;28;20030;-73
2022/01/05 04:15:30;;;;;;;6.50;1.20;;;;;;;2.58;82.50;99142.88;6083263;28;20734;-72
2022/01/05 04:18:26;;;;;;;5.30;1.10;;;;;;;2.57;82.45;99135.97;6085146;28;20538;-73
2022/01/05 04:21:21;;;;;;;9.03;1.47;;;;;;;2.49;82.63;99135.81;6085721;28;20283;-73
2022/01/05 04:24:16;;;;;;;9.07;1.40;;;;;;;2.51;83.00;99146.97;6087755;28;20382;-73
2022/01/05 04:27:12;;;;;;;9.40;1.30;;;;;;;2.53;82.49;99145.88;6088270;28;20036;-73
2022/01/05 04:30:09;;;;;;;8.67;1.77;;;;;;;2.56;82.32;99136.94;6085102;28;20033;-74
2022/01/05 04:33:04;;;;;;;9.45;1.38;;;;;;;2.53;82.36;99145.06;6083626;28;20087;-75
2022/01/05 04:35:59;;;;;;;9.33;1.47;;;;;;;2.46;81.78;99143.94;6072909;28;20037;-74
2022/01/05 04:38:55;;;;;;;10.60;1.60;;;;;;;2.47;81.82;99130.75;6074037;28;20052;-73
2022/01/05 04:41:50;;;;;;;6.03;1.10;;;;;;;2.47;81.60;99143.81;6062594;28;20041;-73
2022/01/05 04:44:45;;;;;;;6.20;1.53;;;;;;;2.36;82.31;99139.50;6075377;28;20574;-74
2022/01/05 04:47:41;;;;;;;5.40;1.03;;;;;;;2.32;82.49;99147.75;6075414;28;20446;-74
2022/01/05 04:50:36;;;;;;;5.10;1.17;;;;;;;2.26;82.37;99150.88;6074686;28;20048;-72
2022/01/05 04:53:31;;;;;;;3.83;1.13;;;;;;;2.23;82.18;99151.97;6075531;28;20064;-74
2022/01/05 04:56:27;;;;;;;6.47;1.10;;;;;;;2.17;82.20;99160.38;6070495;28;20033;-74
2022/01/05 04:59:22;;;;;;;7.53;1.30;;;;;;;2.07;82.58;99148.19;6071118;28;20298;-73
2022/01/05 05:02:17;;;;;;;5.53;1.27;;;;;;;2.02;83.15;99153.81;6074189;28;20029;-74
2022/01/05 05:05:12;;;;;;;9.67;1.50;;;;;;;2.03;82.56;99158.09;6076308;28;20041;-74
2022/01/05 05:08:08;;;;;;;16.53;1.73;;;;;;;2.00;82.31;99168.81;6070335;28;20037;-72
2022/01/05 05:11:03;;;;;;;3.27;1.33;;;;;;;1.95;82.44;99171.00;6056359;28;20494;-72
2022/01/05 05:13:59;;;;;;;4.75;1.23;;;;;;;1.99;82.81;99175.00;6067526;28;20268;-75
2022/01/05 05:16:54;;;;;;;5.60;1.27;;;;;;;1.98;82.13;99170.75;6067273;28;20052;-74
2022/01/05 05:19:49;;;;;;;5.20;1.30;;;;;;;1.95;81.57;99181.44;6075746;28;20043;-74
2022/01/05 05:22:44;;;;;;;4.67;1.43;;;;;;;1.91;82.13;99185.25;6074355;28;20288;-72
2022/01/05 05:25:40;;;;;;;8.50;1.30;;;;;;;1.89;82.00;99179.34;6071033;28;20034;-74
2022/01/05 05:28:35;;;;;;;2.87;1.07;;;;;;;1.85;81.90;99180.53;6072077;28;20029;-71
2022/01/05 05:31:30;;;;;;;8.02;1.17;;;;;;;1.79;82.65;99181.88;6074579;28;20396;-71
2022/01/05 05:34:26;;;;;;;3.33;0.83;;;;;;;1.75;82.39;99175.28;6060788;28;20037;-73
2022/01/05 05:37:22;;;;;;;9.30;1.07;;;;;;;1.67;82.27;99180.31;6065216;28;20057;-72
2022/01/05 05:40:17;;;;;;;8.63;1.30;;;;;;;1.63;82.83;99170.25;6066437;28;20271;-73
2022/01/05 05:43:12;;;;;;;7.45;1.23;;;;;;;1.55;82.70;99167.47;6075034;28;20029;-73
2022/01/05 05:46:08;;;;;;;7.73;1.33;;;;;;;1.48;82.86;99181.97;6074991;28;20040;-72
2022/01/05 05:49:03;;;;;;;5.93;1.20;;;;;;;1.47;82.97;99177.72;6075558;28;20052;-73
2022/01/05 05:51:59;;;;;;;6.43;1.17;;;;;;;1.49;82.41;99167.97;6073845;28;20033;-73
2022/01/05 05:54:54;;;;;;;7.63;1.02;;;;;;;1.51;82.88;99166.03;6072677;28;20079;-72
2022/01/05 05:57:49;;;;;;;9.47;1.57;;;;;;;1.51;82.23;99176.50;6075043;28;20040;-72
2022/01/05 06:00:45;;;;;;;8.23;1.50;;;;;;;1.51;82.25;99179.94;6073505;28;20110;-72
2022/01/05 06:03:40;;;;;;;8.17;1.30;;;;;;;1.50;81.97;99177.44;6073598;28;20029;-71
2022/01/05 06:06:35;;;;;;;6.70;1.10;;;;;;;1.63;81.39;99185.94;6068873;28;20041;-72
2022/01/05 06:09:30;;;;;;;4.00;1.00;;;;;;;1.62;80.90;99192.09;6055916;28;20096;-74
2022/01/05 06:12:26;;;;;;;12.07;1.53;;;;;;;1.62;80.81;99189.50;6063615;28;20048;-72
2022/01/05 06:15:22;;;;;;;5.00;1.40;;;;;;;1.54;80.42;99190.13;6062491;28;20029;-73
2022/01/05 06:18:17;;;;;;;6.83;1.30;;;;;;;1.52;80.69;99186.78;6063911;28;20111;-73
2022/01/05 06:21:12;;;;;;;2.67;0.93;;;;;;;1.50;80.49;99185.25;6070103;28;20021;-73
2022/01/05 06:24:08;;;;;;;3.43;0.93;;;;;;;1.47;80.61;99180.31;6073909;28;20112;-74
2022/01/05 06:27:03;;;;;;;3.87;0.80;;;;;;;1.48;80.28;99187.19;6074350;28;20032;-73
2022/01/05 06:30:04;;;;;;;15.23;1.70;;;;;;;1.50;79.82;99187.88;6074070;28;20503;-72
2022/01/05 06:32:59;;;;;;;4.30;0.75;;;;;;;1.45;79.95;99195.25;6073560;28;20544;-73
2022/01/05 06:35:55;;;;;;;6.40;1.43;;;;;;;1.43;79.36;99189.34;6073181;28;20042;-73
2022/01/05 06:38:50;;;;;;;7.55;1.17;;;;;;;1.35;80.48;99179.53;6073730;28;20088;-74
2022/01/05 06:41:45;;;;;;;4.50;0.90;;;;;;;1.39;80.58;99187.94;6073103;28;20459;-73
2022/01/05 06:44:41;;;;;;;13.57;1.40;;;;;;;1.28;80.94;99185.41;6073187;28;20037;-73
2022/01/05 06:47:36;;;;;;;4.03;1.03;;;;;;;1.24;81.66;99191.81;6073343;28;20048;-72
2022/01/05 06:50:31;;;;;;;4.23;0.83;;;;;;;1.28;81.67;99190.63;6073095;28;20041;-72
2022/01/05 06:53:27;;;;;;;13.30;1.50;;;;;;;1.28;81.04;99195.84;6073885;28;20067;-73
2022/01/05 06:56:23;;;;;;;9.02;1.25;;;;;;;1.32;81.15;99189.41;6070868;28;20125;-74
2022/01/05 06:59:18;;;;;;;7.47;1.63;;;;;;;1.33;80.54;99194.50;6073636;28;20512;-73
2022/01/05 07:02:13;;;;;;;3.80;1.77;;;;;;;1.39;80.36;99196.59;6062279;28;20276;-72
2022/01/05 07:05:09;;;;;;;8.03;1.50;;;;;;;1.39;80.47;99198.38;6050613;28;20025;-73
2022/01/05 07:08:05;;;;;;;9.02;1.50;;;;;;;1.39;80.58;99203.59;6071034;28;20264;-74
2022/01/05 07:11:01;;;;;;;8.70;1.63;;;;;;;1.39;79.98;99183.53;6067396;28;20033;-73
2022/01/05 07:13:56;;;;;;;3.87;1.03;;;;;;;1.48;79.99;99195.84;6062533;28;20083;-72
2022/01/05 07:16:51;;;;;;;9.03;1.47;;;;;;;1.42;80.37;99198.13;6070090;28;20033;-72
2022/01/05 07:19:47;;;;;;;8.93;1.63;;;;;;;1.40;80.19;99195.66;6073148;28;20060;-73
2022/01/05 07:22:42;;;;;;;8.53;1.97;;;;;;;1.43;80.00;99192.78;6068073;28;20042;-72
2022/01/05 07:25:38;;;;;;;4.53;1.40;;;;;;;1.40;79.87;99200.03;6073233;28;20080;-72
2022/01/05 07:28:33;;;;;;;9.50;1.70;;;;;;;1.39;80.93;99199.22;6071230;28;20029;-74
2022/01/05 07:31:28;;;;;;;8.70;1.40;;;;;;;1.42;80.28;99201.56;6072148;28;20037;-72
2022/01/05 07:34:23;;;;;;;6.03;1.50;;;;;;;1.41;80.50;99197.31;6073085;28;20033;-72
2022/01/05 07:37:19;;;;;;;12.27;1.80;;;;;;;1.36;80.68;99203.88;6064837;28;20072;-74
2022/01/05 07:40:14;;;;;;;9.07;2.00;;;;;;;1.38;80.65;99205.41;6061855;28;20087;-72
2022/01/05 07:43:09;;;;;;;7.67;2.10;;;;;;;1.45;80.68;99208.31;6064909;28;20189;-72
2022/01/05 07:46:05;;;;;;;13.87;1.97;;;;;;;1.41;80.89;99222.59;6062038;28;20068;-73
2022/01/05 07:49:05;;;;;;;15.63;3.10;;;;;;;1.36;81.38;99229.97;6069049;28;20036;-73
2022/01/05 07:52:00;;;;;;;7.00;2.10;;;;;;;1.36;81.86;99232.59;6071893;28;20044;-73
2022/01/05 07:54:55;;;;;;;7.37;2.40;;;;;;;1.42;81.33;99235.53;6065159;28;20388;-73
2022/01/05 07:57:51;;;;;;;14.90;2.67;;;;;;;1.47;81.34;99227.31;6069971;28;20049;-72
2022/01/05 08:00:46;;;;;;;11.47;2.63;;;;;;;1.42;81.70;99226.84;6069016;28;20045;-71
2022/01/05 08:03:41;;;;;;;6.97;1.90;;;;;;;1.48;81.72;99236.81;6066901;28;20480;-71
2022/01/05 08:06:37;;;;;;;4.83;1.83;;;;;;;1.51;81.28;99242.63;6072107;28;20065;-72
2022/01/05 08:09:33;;;;;;;8.63;2.63;;;;;;;1.51;81.57;99236.56;6070701;28;20472;-72
2022/01/05 08:12:29;;;;;;;6.38;2.13;;;;;;;1.50;81.30;99247.94;6071864;28;20136;-72
2022/01/05 08:15:25;;;;;;;6.57;2.60;;;;;;;1.56;81.42;99237.84;6071840;28;20479;-73
2022/01/05 08:18:21;;;;;;;4.80;1.52;;;;;;;1.59;81.41;99239.38;6071109;28;20299;-72
2022/01/05 08:21:17;;;;;;;7.05;1.90;;;;;;;1.56;81.25;99247.44;6070369;28;20111;-71
2022/01/05 08:24:12;;;;;;;6.68;1.92;;;;;;;1.56;81.31;99248.28;6062680;28;20042;-73
2022/01/05 08:27:08;;;;;;;8.07;2.23;;;;;;;1.62;81.23;99252.19;6066130;28;20041;-72
2022/01/05 08:30:05;;;;;;;10.30;2.67;;;;;;;1.60;81.55;99243.66;6063639;28;20069;-74
2022/01/05 08:33:03;;;;;;;8.43;2.08;;;;;;;1.58;81.85;99250.75;6078795;28;20037;-74
2022/01/05 08:35:58;;;;;;;7.72;1.98;;;;;;;1.62;81.98;99246.97;6069853;28;20053;-73
2022/01/05 08:38:53;;;;;;;7.57;3.23;;;;;;;1.72;81.76;99247.84;6085234;28;20384;-75
2022/01/05 08:41:50;;;;;;;9.97;2.70;;;;;;;1.90;80.74;99235.06;6084228;28;20445;-73
2022/01/05 08:44:45;;;;;;;11.07;3.03;;;;;;;2.09;80.21;99256.91;6083482;28;20029;-73
2022/01/05 08:47:47;;;;;;;12.43;2.47;;;;;;;2.17;79.69;99245.81;6083314;28;20043;-73
2022/01/05 08:50:44;;;;;;;8.50;2.70;;;;;;;2.24;79.68;99254.78;6080908;28;20507;-72
2022/01/05 08:53:40;;;;;;;10.27;2.38;;;;;;;2.35;79.22;99255.53;6073074;28;20068;-73
2022/01/05 08:56:35;;;;;;;8.18;2.80;;;;;;;2.45;78.26;99258.19;6067150;28;20389;-72
2022/01/05 08:59:31;;;;;;;8.43;3.15;;;;;;;2.54;78.02;99269.66;6078964;28;20041;-73
2022/01/05 09:02:28;;;;;;;14.00;3.60;;;;;;;2.60;77.94;99253.44;6084679;28;20076;-72
2022/01/05 09:05:23;;;;;;;9.98;3.15;;;;;;;2.70;77.44;99267.38;6081251;28;20078;-75
2022/01/05 09:08:18;;;;;;;13.03;4.03;;;;;;;2.83;77.45;99267.97;6079316;28;20178;-73
2022/01/05 09:11:15;;;;;;;12.30;3.17;;;;;;;3.10;76.24;99252.47;6081328;28;20119;-74
2022/01/05 09:14:10;;;;;;;10.88;4.13;;;;;;;3.14;76.07;99261.75;6073350;28;20697;-73
2022/01/05 09:17:07;;;;;;;8.57;4.03;;;;;;;3.08;75.94;99267.50;6070846;28;20053;-73
2022/01/05 09:20:04;;;;;;;13.15;4.20;;;;;;;2.99;75.99;99263.06;6073928;28;20040;-73
2022/01/05 09:23:04;;;;;;;10.00;3.70;;;;;;;2.90;76.33;99256.03;6064073;28;20429;-73
2022/01/05 09:25:59;;;;;;;11.57;3.90;;;;;;;2.81;76.91;99259.44;6073799;28;20037;-72
2022/01/05 09:28:54;;;;;;;10.80;3.97;;;;;;;2.80;76.78;99263.03;6069024;28;20400;-73
2022/01/05 09:31:50;;;;;;;10.97;5.03;;;;;;;2.79;76.19;99270.06;6073087;28;20112;-71
2022/01/05 09:34:46;;;;;;;14.95;4.07;;;;;;;2.76;77.08;99264.25;6072638;28;20033;-72
2022/01/05 09:44:10;;;;;;;;;;;;;;;2.78;77.03;99259.69;6071530;28;20661;-73
2022/01/05 09:47:21;;;;;;;9.02;3.75;;;;;;;2.79;76.81;99248.28;6077829;28;19921;-73
2022/01/05 09:50:18;;;;;;;9.38;3.47;;;;;;;2.77;76.83;99247.59;6076326;28;20037;-73
2022/01/05 09:53:14;;;;;;;7.65;3.63;;;;;;;2.80;77.15;99263.03;6078029;28;20057;-73
2022/01/05 09:56:09;;;;;;;12.23;4.00;;;;;;;2.81;76.70;99255.03;6082174;28;20059;-74
2022/01/05 09:59:04;;;;;;;17.63;4.65;;;;;;;2.89;76.40;99254.38;6078888;28;20034;-72
2022/01/05 10:02:01;;;;;;;13.83;4.20;;;;;;;2.88;76.49;99255.34;6079275;28;20040;-73
2022/01/05 10:04:58;;;;;;;6.07;3.33;;;;;;;2.88;76.78;99245.69;6074673;28;20032;-72
2022/01/05 10:07:54;;;;;;;12.25;3.53;;;;;;;2.93;76.68;99237.44;6080939;28;20381;-72
2022/01/05 10:10:49;;;;;;;10.07;3.60;;;;;;;2.93;76.58;99243.50;6070613;28;20394;-71
2022/01/05 10:13:45;;;;;;;8.68;3.30;;;;;;;2.99;76.71;99242.13;6084661;28;20060;-71
2022/01/05 10:16:41;;;;;;;17.63;4.30;;;;;;;3.00;76.68;99243.78;6068207;28;20082;-72
2022/01/05 10:19:37;;;;;;;12.15;4.05;;;;;;;3.04;76.94;99245.19;6078027;28;20037;-73
2022/01/05 10:22:42;;;;;;;14.05;4.00;;;;;;;2.91;77.96;99241.97;6075661;28;20040;-71
2022/01/05 10:25:38;;;;;;;7.97;3.88;;;;;;;2.94;77.41;99246.94;6079166;28;20056;-71
2022/01/05 10:28:33;;;;;;;10.07;3.45;;;;;;;2.96;78.11;99245.84;6084199;28;20036;-72
2022/01/05 10:31:32;;;;;;;6.22;3.47;;;;;;;2.97;77.80;99236.19;6082196;28;20041;-71
2022/01/05 10:34:29;;;;;;;10.38;4.00;;;;;;;2.98;78.28;99237.88;6080118;28;20084;-72
2022/01/05 10:37:25;;;;;;;13.77;5.05;;;;;;;3.03;77.62;99230.44;6080601;28;20029;-73
2022/01/05 10:40:22;;;;;;;12.05;3.80;;;;;;;3.09;77.81;99232.53;6081118;28;20040;-72
2022/01/05 10:43:17;;;;;;;11.45;3.97;;;;;;;3.07;77.04;99231.84;6081440;28;20030;-72
2022/01/05 10:46:32;;;;;;;14.93;4.30;;;;;;;3.05;77.68;99236.34;6085043;28;20066;-74
2022/01/05 10:49:38;;;;;;;9.35;3.90;;;;;;;3.09;77.86;99235.13;6081503;28;20025;-73
2022/01/05 10:52:35;;;;;;;11.02;4.15;;;;;;;3.16;78.67;99238.84;6083194;28;20036;-73
2022/01/05 10:55:33;;;;;;;10.77;3.65;;;;;;;3.09;78.75;99222.03;6086525;28;20037;-74
2022/01/05 10:58:45;;;;;;;6.38;3.58;;;;;;;2.82;81.39;99237.56;6077265;28;20044;-73
2022/01/05 11:01:42;;;;;;;10.98;4.97;;;;;;;2.50;83.94;99224.63;6077700;28;20033;-74
2022/01/05 11:04:37;;;;;;;14.43;3.88;;;;;;;2.37;85.59;99219.63;6079259;28;20034;-74
2022/01/05 11:07:36;;;;;;;7.87;3.77;;;;;;;2.32;85.50;99231.44;6082701;28;20480;-73
2022/01/05 11:10:32;;;;;;;7.90;3.45;;;;;;;2.18;86.58;99239.59;6081092;28;20036;-73
2022/01/05 11:13:27;;;;;;;6.73;3.33;;;;;;;2.03;87.12;99233.91;6083400;28;20500;-74
2022/01/05 11:16:27;;;;;;;11.53;3.90;;;;;;;1.99;87.39;99229.88;6083699;28;20037;-74
2022/01/05 11:19:27;;;;;;;6.85;3.05;;;;;;;1.99;87.29;99229.88;6080585;28;20268;-73
2022/01/05 11:22:22;;;;;;;5.03;2.78;;;;;;;2.00;87.56;99226.31;6078237;28;20168;-72
2022/01/05 11:25:18;;;;;;;5.27;3.47;;;;;;;2.03;87.56;99226.06;6071931;28;20476;-72
2022/01/05 11:28:16;;;;;;;7.95;2.95;;;;;;;2.08;87.03;99226.50;6072201;28;20261;-73
2022/01/05 11:31:12;;;;;;;5.50;2.97;;;;;;;2.10;86.71;99224.56;6071374;28;20566;-73
2022/01/05 11:34:07;;;;;;;5.80;2.80;;;;;;;2.17;86.64;99230.13;6073059;28;20033;-73
2022/01/05 11:37:04;;;;;;;5.70;2.88;;;;;;;2.22;86.86;99228.78;6062799;28;20065;-72
2022/01/05 11:40:03;;;;;;;5.05;2.70;;;;;;;2.32;86.92;99226.19;6071516;28;20052;-70
2022/01/05 11:43:07;;;;;;;6.97;3.33;;;;;;;2.26;86.68;99221.47;6072877;28;20030;-73
2022/01/05 11:46:13;;;;;;;7.90;3.70;;;;;;;2.17;87.43;99238.81;6072641;28;20083;-73
2022/01/05 11:49:11;;;;;;;5.93;3.30;;;;;;;1.98;88.40;99240.47;6063515;28;20039;-72
2022/01/05 11:52:07;;;;;;;7.57;3.72;;;;;;;1.77;89.53;99243.06;6071332;28;20526;-72
2022/01/05 11:55:05;;;;;;;7.75;3.80;;;;;;;1.60;90.13;99238.44;6068283;28;20045;-70
2022/01/05 11:58:20;;;;;;;7.60;4.03;;;;;;;1.36;90.59;99258.69;6055457;28;20038;-70
2022/01/05 12:01:21;;;;;;;6.70;3.63;;;;;;;1.21;91.28;99252.91;6067661;28;20041;-70
2022/01/05 12:04:20;;;;;;;7.40;3.88;;;;;;;1.25;91.87;99253.50;6071824;28;20061;-70
2022/01/05 12:07:15;;;;;;;17.02;4.65;;;;;;;1.32;92.62;99257.28;6074982;28;20045;-71
2022/01/05 12:10:18;;;;;;;12.83;4.77;;;;;;;1.40;92.44;99252.25;6074627;28;20091;-71
2022/01/05 12:13:14;;;;;;;8.38;3.85;;;;;;;1.42;92.56;99256.41;6076734;28;20388;-72
2022/01/05 12:16:09;;;;;;;11.53;3.90;;;;;;;1.46;93.00;99251.78;6080073;28;20034;-70
2022/01/05 12:19:12;;;;;;;9.63;3.90;;;;;;;1.44;92.92;99248.47;6069462;28;20045;-70
2022/01/05 12:22:24;;;;;;;8.70;4.20;;;;;;;1.45;93.14;99239.66;6075826;28;20087;-71
2022/01/05 12:25:20;;;;;;;8.82;3.80;;;;;;;1.54;92.84;99244.13;6069520;28;20087;-70
2022/01/05 12:28:27;;;;;;;9.03;4.47;;;;;;;1.64;93.12;99235.44;6077333;28;20033;-71
2022/01/05 12:31:47;;;;;;;8.30;3.85;;;;;;;1.75;92.87;99243.22;6074640;28;20280;-70
2022/01/05 12:34:54;;;;;;;7.65;3.70;;;;;;;1.86;92.96;99247.53;6065578;28;20030;-72
2022/01/05 12:38:06;;;;;;;9.77;3.97;;;;;;;1.99;92.43;99235.09;6067691;28;20043;-71
2022/01/05 12:41:28;;;;;;;6.97;2.95;;;;;;;2.05;92.04;99242.44;6062558;28;20034;-71
2022/01/05 12:44:25;;;;;;;6.25;3.42;;;;;;;2.05;91.79;99250.28;6070586;28;20044;-72
2022/01/05 12:47:35;;;;;;;5.75;3.08;;;;;;;2.04;91.37;99253.03;6068250;28;20492;-72
2022/01/05 12:50:33;;;;;;;7.10;3.60;;;;;;;2.03;91.55;99246.97;6074423;28;20108;-73
2022/01/05 12:53:35;;;;;;;6.22;3.40;;;;;;;2.01;91.29;99248.88;6069166;28;20465;-72
2022/01/05 12:56:37;;;;;;;7.43;4.05;;;;;;;2.03;92.03;99241.75;6075180;28;20071;-69
2022/01/05 12:59:35;;;;;;;8.50;3.45;;;;;;;2.10;92.05;99248.09;6072015;28;20099;-71
2022/01/05 13:02:31;;;;;;;7.68;3.80;;;;;;;2.18;91.75;99244.84;6072439;28;20041;-70
2022/01/05 13:05:30;;;;;;;6.30;3.28;;;;;;;2.26;91.64;99251.09;6074343;28;20120;-69
2022/01/05 13:08:27;;;;;;;10.70;3.65;;;;;;;2.38;92.00;99252.66;6073622;28;20087;-71
2022/01/05 13:11:42;;;;;;;5.72;3.15;;;;;;;2.46;91.35;99248.56;6073282;28;20065;-70
2022/01/05 13:14:41;;;;;;;7.38;3.83;;;;;;;2.46;91.55;99266.88;6078057;28;20042;-71
2022/01/05 13:17:39;;;;;;;6.65;3.13;;;;;;;2.46;91.13;99274.72;6075051;28;20040;-70
2022/01/05 13:20:34;;;;;;;7.35;3.58;;;;;;;2.43;91.01;99270.59;6086393;28;20134;-70
2022/01/05 13:23:30;;;;;;;6.80;2.73;;;;;;;2.43;91.29;99275.81;6080215;28;20074;-70
2022/01/05 13:26:25;;;;;;;13.80;7.37;;;;;;;2.51;91.58;99277.78;6079088;28;20476;-69
2022/01/05 13:29:21;;;;;;;20.63;9.57;;;;;;;2.48;91.57;99280.66;6081934;28;20068;-72
2022/01/05 13:32:19;;;;;;;6.85;3.22;;;;;;;2.44;91.61;99279.25;6072537;28;20045;-70
2022/01/05 13:35:15;;;;;;;11.02;6.10;;;;;;;2.42;91.26;99283.81;6072144;28;20038;-70
2022/01/05 13:38:14;;;;;;;15.65;6.68;;;;;;;2.45;91.63;99286.16;6073784;28;20076;-70
2022/01/05 13:41:10;;;;;;;13.23;5.70;;;;;;;2.55;92.44;99274.78;6069389;28;20043;-70
2022/01/05 13:44:05;;;;;;;11.65;5.43;;;;;;;2.68;92.47;99269.31;6076819;28;20660;-70
2022/01/05 13:47:06;;;;;;;7.10;2.72;;;;;;;2.73;92.48;99288.06;6073390;28;20500;-70
2022/01/05 13:50:13;;;;;;;8.15;3.05;;;;;;;2.71;91.93;99292.59;6073326;28;20043;-70
2022/01/05 13:53:12;;;;;;;7.05;3.78;;;;;;;2.69;92.05;99291.91;6068601;28;20029;-70
2022/01/05 13:56:12;;;;;;;5.07;2.40;;;;;;;2.68;92.03;99287.63;6058647;28;20042;-71
2022/01/05 13:59:08;;;;;;;7.68;2.85;;;;;;;2.66;91.90;99302.66;6058355;28;20041;-69
2022/01/05 14:02:08;;;;;;;5.38;3.17;;;;;;;2.66;91.87;99297.41;6056847;28;20050;-71
2022/01/05 14:05:07;;;;;;;17.42;7.55;;;;;;;2.66;92.32;99286.94;6064309;28;20037;-70